Emneth, United Kingdom
Current Conditions -  °F | °C
As of 3:50 AM on Sunday 23 Nov 2014 (Local Time) from EGYM Reporting Station
Moderate Rain Moderate Rain  
Wind Chill: 52°   Ceiling: 3100
Heat Index: 52°   Visibility: 2.1mi
Dew Point: 52°   Wind: 7mph
Humidity: 100%   Direction: 360°N
Pressure: 29.94"   Gusts: NA
Location:  52.64°N, 0.21°E
Report Text: EGYM 230350Z AUTO 36006KT 3500 RA SCT025/// BKN031/// 11/11 Q1014
Loading
Personal Weather Stations






























Interactive Weather Map New forecast layout! Learn more

10-Day Weather Forecast

Advertisements
Track Severe Weather on mobile